createdAt,value
2018-03-27T00:00:14.710Z,1013.02
2018-03-27T00:01:14.680Z,1013.02
2018-03-27T00:02:14.708Z,1013.06
2018-03-27T00:03:14.620Z,1013.03
2018-03-27T00:04:14.599Z,1013.07
2018-03-27T00:05:14.591Z,1013.07
2018-03-27T00:06:14.529Z,1013.08
2018-03-27T00:07:14.547Z,1013.11
2018-03-27T00:08:15.351Z,1013.13
2018-03-27T00:09:14.443Z,1013.09
2018-03-27T00:10:14.414Z,1013.07
2018-03-27T00:11:14.454Z,1013.11
2018-03-27T00:12:14.358Z,1013.13
2018-03-27T00:13:14.329Z,1013.13
2018-03-27T00:14:14.294Z,1013.12
2018-03-27T00:15:14.839Z,1013.12
2018-03-27T00:16:14.286Z,1013.10
2018-03-27T00:17:14.214Z,1013.13
2018-03-27T00:18:14.237Z,1013.12
2018-03-27T00:19:14.843Z,1013.12
2018-03-27T00:20:14.167Z,1013.16
2018-03-27T00:21:14.089Z,1013.13
2018-03-27T00:22:14.850Z,1013.16
2018-03-27T00:23:14.031Z,1013.17
2018-03-27T00:24:14.054Z,1013.17
2018-03-27T00:25:14.040Z,1013.13
2018-03-27T00:26:13.954Z,1013.17
2018-03-27T00:27:13.915Z,1013.15
2018-03-27T00:28:13.886Z,1013.14
2018-03-27T00:29:13.855Z,1013.17
2018-03-27T00:30:13.902Z,1013.18
2018-03-27T00:31:13.797Z,1013.21
2018-03-27T00:32:13.822Z,1013.15
2018-03-27T00:33:13.739Z,1013.17
2018-03-27T00:34:13.710Z,1013.20
2018-03-27T00:35:13.682Z,1013.22
2018-03-27T00:36:13.654Z,1013.19
2018-03-27T00:37:13.669Z,1013.18
2018-03-27T00:38:13.591Z,1013.25
2018-03-27T00:39:13.609Z,1013.24
2018-03-27T00:40:13.533Z,1013.23
2018-03-27T00:41:13.530Z,1013.26
2018-03-27T00:42:13.531Z,1013.22
2018-03-27T00:43:13.447Z,1013.22
2018-03-27T00:44:13.418Z,1013.20
2018-03-27T00:45:13.390Z,1013.23
2018-03-27T00:46:13.360Z,1013.23
2018-03-27T00:47:13.388Z,1013.20
2018-03-27T00:48:13.299Z,1013.21
2018-03-27T00:49:13.274Z,1013.21
2018-03-27T00:50:13.241Z,1013.22
2018-03-27T00:51:13.263Z,1013.20
2018-03-27T00:52:13.184Z,1013.20
2018-03-27T00:53:13.155Z,1013.22
2018-03-27T00:54:13.849Z,1013.26
2018-03-27T00:55:13.149Z,1013.23
2018-03-27T00:56:13.067Z,1013.24
2018-03-27T00:57:13.038Z,1013.25
2018-03-27T00:58:13.008Z,1013.26
2018-03-27T00:59:12.980Z,1013.23
2018-03-27T01:00:13.006Z,1013.21
2018-03-27T01:01:12.923Z,1013.25
2018-03-27T01:02:12.893Z,1013.26
2018-03-27T01:03:12.866Z,1013.21
2018-03-27T01:04:12.845Z,1013.24
2018-03-27T01:05:12.847Z,1013.23
2018-03-27T01:06:12.779Z,1013.26
2018-03-27T01:07:12.751Z,1013.26
2018-03-27T01:08:12.720Z,1013.26
2018-03-27T01:09:12.738Z,1013.29
2018-03-27T01:10:12.707Z,1013.30
2018-03-27T01:11:13.257Z,1013.29
2018-03-27T01:12:12.638Z,1013.32
2018-03-27T01:13:12.618Z,1013.30
2018-03-27T01:14:12.542Z,1013.31
2018-03-27T01:15:12.513Z,1013.35
2018-03-27T01:16:12.484Z,1013.33
2018-03-27T01:17:12.502Z,1013.33
2018-03-27T01:18:12.425Z,1013.31
2018-03-27T01:19:12.396Z,1013.33
2018-03-27T01:20:12.373Z,1013.34
2018-03-27T01:21:12.338Z,1013.33
2018-03-27T01:22:12.366Z,1013.33
2018-03-27T01:23:12.280Z,1013.33
2018-03-27T01:24:12.257Z,1013.35
2018-03-27T01:25:12.228Z,1013.36
2018-03-27T01:26:12.847Z,1013.32
2018-03-27T01:27:12.227Z,1013.31
2018-03-27T01:28:12.133Z,1013.29
2018-03-27T01:29:12.106Z,1013.32
2018-03-27T01:30:12.075Z,1013.29
2018-03-27T01:31:12.046Z,1013.30
2018-03-27T01:32:12.067Z,1013.28
2018-03-27T01:33:12.036Z,1013.29
2018-03-27T01:34:11.963Z,1013.22
2018-03-27T01:35:11.932Z,1013.23
2018-03-27T01:36:11.915Z,1013.25
2018-03-27T01:37:11.874Z,1013.17
2018-03-27T01:38:11.897Z,1013.22
2018-03-27T01:39:11.809Z,1013.20
2018-03-27T01:40:11.783Z,1013.18
2018-03-27T01:41:11.761Z,1013.19
2018-03-27T01:42:11.777Z,1013.19
2018-03-27T01:43:11.695Z,1013.19
2018-03-27T01:44:11.664Z,1013.20
2018-03-27T01:45:11.636Z,1013.19
2018-03-27T01:46:11.609Z,1013.20
2018-03-27T01:47:11.620Z,1013.17
2018-03-27T01:48:11.547Z,1013.16
2018-03-27T01:49:11.522Z,1013.15
2018-03-27T01:50:11.529Z,1013.11
2018-03-27T01:51:11.461Z,1013.16
2018-03-27T01:52:11.430Z,1013.10
2018-03-27T01:53:11.448Z,1013.07
2018-03-27T01:54:12.345Z,1013.11
2018-03-27T01:55:11.404Z,1013.07
2018-03-27T01:56:11.331Z,1013.06
2018-03-27T01:57:11.279Z,1013.01
2018-03-27T01:58:11.252Z,1012.99
2018-03-27T01:59:11.225Z,1012.93
2018-03-27T02:00:11.248Z,1012.92
2018-03-27T02:01:11.164Z,1012.87
2018-03-27T02:02:11.139Z,1012.90
2018-03-27T02:03:11.104Z,1012.84
2018-03-27T02:04:11.073Z,1012.86
2018-03-27T02:05:11.164Z,1012.89
2018-03-27T02:06:11.024Z,1012.90
2018-03-27T02:07:10.989Z,1012.92
2018-03-27T02:08:10.960Z,1012.91
2018-03-27T02:09:10.928Z,1012.93
2018-03-27T02:10:10.942Z,1012.92
2018-03-27T02:11:10.866Z,1012.94
2018-03-27T02:12:10.887Z,1012.93
2018-03-27T02:13:10.805Z,1012.93
2018-03-27T02:14:11.351Z,1012.92
2018-03-27T02:15:10.747Z,1012.95
2018-03-27T02:16:10.723Z,1012.96
2018-03-27T02:17:10.724Z,1012.92
2018-03-27T02:18:10.700Z,1012.90
2018-03-27T02:19:10.630Z,1012.89
2018-03-27T02:20:10.594Z,1012.85
2018-03-27T02:21:10.564Z,1012.87
2018-03-27T02:22:11.347Z,1012.81
2018-03-27T02:23:10.543Z,1012.84
2018-03-27T02:24:10.529Z,1012.83
2018-03-27T02:25:10.448Z,1012.83
2018-03-27T02:26:10.421Z,1012.82
2018-03-27T02:27:10.383Z,1012.80
2018-03-27T02:28:10.420Z,1012.78
2018-03-27T02:29:10.327Z,1012.80
2018-03-27T02:30:10.292Z,1012.83
2018-03-27T02:31:10.270Z,1012.86
2018-03-27T02:32:10.282Z,1012.85
2018-03-27T02:33:10.245Z,1012.86
2018-03-27T02:34:10.172Z,1012.86
2018-03-27T02:35:10.289Z,1012.87
2018-03-27T02:36:10.116Z,1012.88
2018-03-27T02:37:10.083Z,1012.88
2018-03-27T02:38:10.050Z,1012.91
2018-03-27T02:39:10.023Z,1012.96
2018-03-27T02:40:10.037Z,1012.94
2018-03-27T02:41:09.963Z,1012.98
2018-03-27T02:42:09.929Z,1012.97
2018-03-27T02:43:09.903Z,1013.00
2018-03-27T02:44:09.868Z,1013.01
2018-03-27T02:45:09.885Z,1013.02
2018-03-27T02:46:09.812Z,1013.04
2018-03-27T02:47:09.779Z,1013.04
2018-03-27T02:48:09.751Z,1013.02
2018-03-27T02:49:09.765Z,1013.04
2018-03-27T02:50:09.683Z,1013.09
2018-03-27T02:51:09.720Z,1013.14
2018-03-27T02:52:09.626Z,1013.07
2018-03-27T02:53:09.618Z,1013.13
2018-03-27T02:54:09.565Z,1013.10
2018-03-27T02:55:09.532Z,1013.12
2018-03-27T02:56:09.557Z,1013.10
2018-03-27T02:57:09.482Z,1013.12
2018-03-27T02:58:09.439Z,1013.09
2018-03-27T02:59:09.415Z,1013.14
2018-03-27T03:00:09.379Z,1013.13
2018-03-27T03:01:09.410Z,1013.13
2018-03-27T03:02:09.318Z,1013.14
2018-03-27T03:03:09.308Z,1013.12
2018-03-27T03:04:09.264Z,1013.11
2018-03-27T03:05:09.220Z,1013.10
2018-03-27T03:06:09.235Z,1013.08
2018-03-27T03:07:09.162Z,1013.13
2018-03-27T03:08:09.130Z,1013.11
2018-03-27T03:09:09.100Z,1013.12
2018-03-27T03:10:09.067Z,1013.12
2018-03-27T03:11:09.084Z,1013.12
2018-03-27T03:12:09.057Z,1013.11
2018-03-27T03:13:08.975Z,1013.08
2018-03-27T03:14:09.001Z,1013.06
2018-03-27T03:15:08.912Z,1013.04
2018-03-27T03:16:08.883Z,1013.07
2018-03-27T03:17:08.851Z,1013.09
2018-03-27T03:18:08.820Z,1013.09
2018-03-27T03:19:08.857Z,1013.10
2018-03-27T03:20:08.769Z,1013.11
2018-03-27T03:21:08.746Z,1013.13
2018-03-27T03:22:09.356Z,1013.17
2018-03-27T03:23:08.676Z,1013.13
2018-03-27T03:24:08.685Z,1013.10
2018-03-27T03:25:08.610Z,1013.13
2018-03-27T03:26:08.568Z,1013.14
2018-03-27T03:27:08.587Z,1013.14
2018-03-27T03:28:08.510Z,1013.16
2018-03-27T03:29:08.520Z,1013.13
2018-03-27T03:30:08.444Z,1013.13
2018-03-27T03:31:08.413Z,1013.13
2018-03-27T03:32:08.384Z,1013.11
2018-03-27T03:33:08.411Z,1013.10
2018-03-27T03:34:08.316Z,1013.10
2018-03-27T03:35:08.290Z,1013.14
2018-03-27T03:36:08.264Z,1013.11
2018-03-27T03:37:08.234Z,1013.14
2018-03-27T03:38:08.262Z,1013.15
2018-03-27T03:39:08.162Z,1013.10
2018-03-27T03:40:08.132Z,1013.10
2018-03-27T03:41:08.107Z,1013.13
2018-03-27T03:42:08.072Z,1013.13
2018-03-27T03:43:08.092Z,1013.12
2018-03-27T03:44:08.010Z,1013.09
2018-03-27T03:45:07.977Z,1013.11
2018-03-27T03:46:07.948Z,1013.08
2018-03-27T03:47:07.914Z,1013.03
2018-03-27T03:48:07.930Z,1013.04
2018-03-27T03:49:07.851Z,1013.02
2018-03-27T03:50:07.817Z,1013.01
2018-03-27T03:51:07.790Z,1013.05
2018-03-27T03:52:07.767Z,1013.03
2018-03-27T03:53:07.834Z,1013.09
2018-03-27T03:54:07.695Z,1013.09
2018-03-27T03:55:07.664Z,1013.11
2018-03-27T03:56:07.683Z,1013.09
2018-03-27T03:57:07.606Z,1013.12
2018-03-27T03:58:07.568Z,1013.11
2018-03-27T03:59:09.349Z,1013.09
2018-03-27T04:00:07.509Z,1013.07
2018-03-27T04:01:07.522Z,1013.09
2018-03-27T04:02:07.447Z,1013.08
2018-03-27T04:03:07.411Z,1013.08
2018-03-27T04:04:07.387Z,1013.03
2018-03-27T04:05:07.349Z,1013.04
2018-03-27T04:06:07.366Z,1013.05
2018-03-27T04:07:07.287Z,1013.02
2018-03-27T04:08:07.254Z,1013.02
2018-03-27T04:09:07.245Z,1013.04
2018-03-27T04:10:07.191Z,1013.06
2018-03-27T04:11:07.226Z,1013.06
2018-03-27T04:12:07.127Z,1013.06
2018-03-27T04:13:07.098Z,1013.10
2018-03-27T04:14:07.069Z,1013.07
2018-03-27T04:15:07.043Z,1013.08
2018-03-27T04:16:07.050Z,1013.11
2018-03-27T04:17:07.039Z,1013.12
2018-03-27T04:18:06.949Z,1013.08
2018-03-27T04:19:06.906Z,1013.13
2018-03-27T04:20:06.887Z,1013.09
2018-03-27T04:21:06.846Z,1013.12
2018-03-27T04:22:06.853Z,1013.13
2018-03-27T04:23:06.829Z,1013.13
2018-03-27T04:24:06.750Z,1013.12
2018-03-27T04:25:06.718Z,1013.11
2018-03-27T04:26:06.715Z,1013.13
2018-03-27T04:27:06.654Z,1013.15
2018-03-27T04:28:06.669Z,1013.15
2018-03-27T04:29:06.588Z,1013.11
2018-03-27T04:30:06.623Z,1013.12
2018-03-27T04:31:06.531Z,1013.10
2018-03-27T04:32:06.498Z,1013.10
2018-03-27T04:33:06.513Z,1013.08
2018-03-27T04:34:06.430Z,1013.13
2018-03-27T04:35:06.399Z,1013.15
2018-03-27T04:36:06.368Z,1013.18
2018-03-27T04:37:06.340Z,1013.17
2018-03-27T04:38:06.353Z,1013.15
2018-03-27T04:39:06.276Z,1013.14
2018-03-27T04:40:06.285Z,1013.13
2018-03-27T04:41:06.208Z,1013.14
2018-03-27T04:42:06.176Z,1013.09
2018-03-27T04:43:06.147Z,1013.07
2018-03-27T04:44:06.113Z,1013.05
2018-03-27T04:45:06.133Z,1013.04
2018-03-27T04:46:06.105Z,1013.06
2018-03-27T04:47:06.023Z,1013.09
2018-03-27T04:48:05.985Z,1013.06
2018-03-27T04:49:06.004Z,1013.06
2018-03-27T04:50:07.275Z,1013.05
2018-03-27T04:51:05.891Z,1013.09
2018-03-27T04:52:05.858Z,1013.09
2018-03-27T04:53:05.831Z,1013.12
2018-03-27T04:54:05.799Z,1013.09
2018-03-27T04:55:05.830Z,1013.12
2018-03-27T04:56:05.753Z,1013.13
2018-03-27T04:57:05.707Z,1013.12
2018-03-27T04:58:05.675Z,1013.10
2018-03-27T04:59:05.642Z,1013.11
2018-03-27T05:00:05.648Z,1013.10
2018-03-27T05:01:05.574Z,1013.10
2018-03-27T05:02:05.593Z,1013.10
2018-03-27T05:03:05.516Z,1013.09
2018-03-27T05:04:05.483Z,1013.09
2018-03-27T05:05:05.501Z,1013.05
2018-03-27T05:06:05.428Z,1013.05
2018-03-27T05:07:05.387Z,1013.04
2018-03-27T05:08:05.359Z,1013.05
2018-03-27T05:09:05.320Z,1013.07
2018-03-27T05:10:05.335Z,1013.08
2018-03-27T05:11:05.258Z,1013.06
2018-03-27T05:12:05.257Z,1013.04
2018-03-27T05:13:05.194Z,1013.06
2018-03-27T05:14:05.162Z,1013.06
2018-03-27T05:15:05.187Z,1013.05
2018-03-27T05:16:05.103Z,1013.07
2018-03-27T05:17:05.072Z,1013.07
2018-03-27T05:18:05.050Z,1013.08
2018-03-27T05:19:05.012Z,1013.09
2018-03-27T05:20:05.017Z,1013.12
2018-03-27T05:21:04.939Z,1013.13
2018-03-27T05:22:04.912Z,1013.11
2018-03-27T05:23:04.879Z,1013.10
2018-03-27T05:24:04.854Z,1013.09
2018-03-27T05:25:04.866Z,1013.11
2018-03-27T05:26:04.786Z,1013.10
2018-03-27T05:27:04.763Z,1013.08
2018-03-27T05:28:04.721Z,1013.04
2018-03-27T05:29:04.699Z,1013.05
2018-03-27T05:30:04.706Z,1013.07
2018-03-27T05:31:04.629Z,1013.05
2018-03-27T05:32:04.597Z,1013.11
2018-03-27T05:33:04.563Z,1013.11
2018-03-27T05:34:04.536Z,1013.12
2018-03-27T05:35:04.552Z,1013.16
2018-03-27T05:36:04.472Z,1013.17
2018-03-27T05:37:04.488Z,1013.17
2018-03-27T05:38:05.364Z,1013.15
2018-03-27T05:39:04.425Z,1013.14
2018-03-27T05:40:04.350Z,1013.18
2018-03-27T05:41:04.358Z,1013.18
2018-03-27T05:42:04.283Z,1013.23
2018-03-27T05:43:04.259Z,1013.21
2018-03-27T05:44:04.219Z,1013.22
2018-03-27T05:45:04.189Z,1013.23
2018-03-27T05:46:04.205Z,1013.20
2018-03-27T05:47:04.138Z,1013.20
2018-03-27T05:48:04.097Z,1013.19
2018-03-27T05:49:04.074Z,1013.16
2018-03-27T05:50:04.042Z,1013.20
2018-03-27T05:51:04.047Z,1013.18
2018-03-27T05:52:03.977Z,1013.22
2018-03-27T05:53:03.940Z,1013.21
2018-03-27T05:54:03.910Z,1013.20
2018-03-27T05:55:03.880Z,1013.21
2018-03-27T05:56:03.942Z,1013.22
2018-03-27T05:57:03.824Z,1013.23
2018-03-27T05:58:03.785Z,1013.26
2018-03-27T05:59:03.805Z,1013.24
2018-03-27T06:00:03.724Z,1013.27
2018-03-27T06:01:03.704Z,1013.26
2018-03-27T06:02:03.666Z,1013.26
2018-03-27T06:03:03.635Z,1013.28
2018-03-27T06:04:03.649Z,1013.30
2018-03-27T06:05:03.573Z,1013.32
2018-03-27T06:06:03.541Z,1013.35
2018-03-27T06:07:03.516Z,1013.35
2018-03-27T06:08:03.536Z,1013.34
2018-03-27T06:09:03.454Z,1013.36
2018-03-27T06:10:04.356Z,1013.38
2018-03-27T06:11:03.398Z,1013.38
2018-03-27T06:12:03.408Z,1013.39
2018-03-27T06:13:03.386Z,1013.39
2018-03-27T06:14:03.296Z,1013.40
2018-03-27T06:15:03.318Z,1013.43
2018-03-27T06:16:03.245Z,1013.40
2018-03-27T06:17:03.207Z,1013.38
2018-03-27T06:18:03.178Z,1013.40
2018-03-27T06:19:03.216Z,1013.36
2018-03-27T06:20:03.116Z,1013.38
2018-03-27T06:21:03.085Z,1013.37
2018-03-27T06:22:03.054Z,1013.39
2018-03-27T06:23:03.034Z,1013.34
2018-03-27T06:24:03.047Z,1013.32
2018-03-27T06:25:03.023Z,1013.32
2018-03-27T06:26:02.936Z,1013.34
2018-03-27T06:27:02.906Z,1013.35
2018-03-27T06:28:02.887Z,1013.35
2018-03-27T06:29:02.848Z,1013.35
2018-03-27T06:30:02.858Z,1013.38
2018-03-27T06:31:02.791Z,1013.37
2018-03-27T06:32:02.759Z,1013.38
2018-03-27T06:33:02.769Z,1013.46
2018-03-27T06:34:02.705Z,1013.46
2018-03-27T06:35:02.714Z,1013.48
2018-03-27T06:36:02.651Z,1013.42
2018-03-27T06:37:02.617Z,1013.51
2018-03-27T06:38:02.582Z,1013.48
2018-03-27T06:39:02.558Z,1013.45
2018-03-27T06:40:02.576Z,1013.44
2018-03-27T06:41:02.494Z,1013.43
2018-03-27T06:42:02.547Z,1013.42
2018-03-27T06:43:02.438Z,1013.41
2018-03-27T06:44:02.408Z,1013.40
2018-03-27T06:45:02.432Z,1013.37
2018-03-27T06:46:02.863Z,1013.36
2018-03-27T06:47:02.329Z,1013.39
2018-03-27T06:48:02.343Z,1013.38
2018-03-27T06:49:02.280Z,1013.37
2018-03-27T06:50:02.234Z,1013.38
2018-03-27T06:51:02.210Z,1013.41
2018-03-27T06:52:02.227Z,1013.39
2018-03-27T06:53:02.154Z,1013.47
2018-03-27T06:54:02.859Z,1013.45
2018-03-27T06:55:02.148Z,1013.46
2018-03-27T06:56:02.115Z,1013.44
2018-03-27T06:57:02.085Z,1013.47
2018-03-27T06:58:02.013Z,1013.47
2018-03-27T06:59:02.077Z,1013.48
2018-03-27T07:00:01.953Z,1013.47
2018-03-27T07:01:01.926Z,1013.44
2018-03-27T07:02:01.892Z,1013.46
2018-03-27T07:03:01.932Z,1013.47
2018-03-27T07:04:01.848Z,1013.43
2018-03-27T07:05:01.816Z,1013.47
2018-03-27T07:06:01.780Z,1013.48
2018-03-27T07:07:01.812Z,1013.48
2018-03-27T07:08:01.731Z,1013.43
2018-03-27T07:09:01.721Z,1013.48
2018-03-27T07:10:01.915Z,1013.46
2018-03-27T07:11:01.660Z,1013.47
2018-03-27T07:12:01.637Z,1013.47
2018-03-27T07:13:01.588Z,1013.45
2018-03-27T07:14:01.633Z,1013.47
2018-03-27T07:15:01.659Z,1013.44
2018-03-27T07:16:01.500Z,1013.43
2018-03-27T07:17:01.472Z,1013.44
2018-03-27T07:18:01.449Z,1013.43
2018-03-27T07:19:01.418Z,1013.43
2018-03-27T07:20:01.436Z,1013.43
2018-03-27T07:21:01.359Z,1013.41
2018-03-27T07:22:01.334Z,1013.36
2018-03-27T07:23:01.347Z,1013.41
2018-03-27T07:24:01.292Z,1013.39
2018-03-27T07:25:01.246Z,1013.41
2018-03-27T07:26:01.216Z,1013.42
2018-03-27T07:27:01.282Z,1013.40
2018-03-27T07:28:01.168Z,1013.45
2018-03-27T07:29:01.134Z,1013.43
2018-03-27T07:30:01.107Z,1013.40
2018-03-27T07:31:01.079Z,1013.41
2018-03-27T07:32:01.099Z,1013.42
2018-03-27T07:33:01.022Z,1013.45
2018-03-27T07:34:01.019Z,1013.44
2018-03-27T07:35:00.970Z,1013.45
2018-03-27T07:36:00.943Z,1013.45
2018-03-27T07:37:00.961Z,1013.43
2018-03-27T07:38:00.935Z,1013.47
2018-03-27T07:39:00.856Z,1013.45
2018-03-27T07:40:00.829Z,1013.46
2018-03-27T07:41:00.810Z,1013.43
2018-03-27T07:42:00.777Z,1013.47
2018-03-27T07:43:00.815Z,1013.48
2018-03-27T07:44:00.772Z,1013.49
2018-03-27T07:45:00.700Z,1013.45
2018-03-27T07:46:00.669Z,1013.47
2018-03-27T07:47:00.639Z,1013.46
2018-03-27T07:48:00.671Z,1013.46
2018-03-27T07:49:00.605Z,1013.44
2018-03-27T07:50:00.561Z,1013.43
2018-03-27T07:51:00.538Z,1013.45
2018-03-27T07:52:00.567Z,1013.50
2018-03-27T07:53:00.483Z,1013.47
2018-03-27T07:54:00.458Z,1013.52
2018-03-27T07:55:00.431Z,1013.50
2018-03-27T07:56:00.404Z,1013.49
2018-03-27T07:57:00.425Z,1013.49
2018-03-27T07:58:00.348Z,1013.49
2018-03-27T07:59:00.322Z,1013.43
2018-03-27T08:00:00.347Z,1013.45
2018-03-27T08:01:00.269Z,1013.42
2018-03-27T08:02:00.296Z,1013.41
2018-03-27T08:03:00.226Z,1013.40
2018-03-27T08:04:00.196Z,1013.41
2018-03-27T08:05:00.218Z,1013.38
2018-03-27T08:06:00.149Z,1013.34
2018-03-27T08:07:00.120Z,1013.35
2018-03-27T08:08:00.093Z,1013.35
2018-03-27T08:09:00.868Z,1013.35
2018-03-27T08:10:00.089Z,1013.34
2018-03-27T08:11:00.047Z,1013.28
2018-03-27T08:12:00.004Z,1013.31
2018-03-27T08:12:59.968Z,1013.34
2018-03-27T08:13:59.947Z,1013.32
2018-03-27T08:14:59.972Z,1013.32
2018-03-27T08:15:59.900Z,1013.33
2018-03-27T08:16:59.875Z,1013.29
2018-03-27T08:17:59.849Z,1013.33
2018-03-27T08:18:59.876Z,1013.30
2018-03-27T08:19:59.803Z,1013.32
2018-03-27T08:20:59.791Z,1013.29
2018-03-27T08:21:59.754Z,1013.29
2018-03-27T08:22:59.744Z,1013.30
2018-03-27T08:23:59.859Z,1013.30
2018-03-27T08:24:59.733Z,1013.28
2018-03-27T08:25:59.701Z,1013.27
2018-03-27T08:26:59.703Z,1013.29
2018-03-27T08:27:59.635Z,1013.29
2018-03-27T08:28:59.605Z,1013.32
2018-03-27T08:29:59.582Z,1013.29
2018-03-27T08:30:59.555Z,1013.28
2018-03-27T08:31:59.579Z,1013.25
2018-03-27T08:32:59.512Z,1013.24
2018-03-27T08:33:59.492Z,1013.24
2018-03-27T08:34:59.529Z,1013.20
2018-03-27T08:35:59.455Z,1013.19
2018-03-27T08:36:59.427Z,1013.18
2018-03-27T08:37:59.406Z,1013.16
2018-03-27T08:38:59.387Z,1013.18
2018-03-27T08:39:59.407Z,1013.22
2018-03-27T08:40:59.343Z,1013.21
2018-03-27T08:41:59.322Z,1013.25
2018-03-27T08:42:59.297Z,1013.21
2018-03-27T08:43:59.875Z,1013.23
2018-03-27T08:44:59.296Z,1013.21
2018-03-27T08:45:59.317Z,1013.15
2018-03-27T08:46:59.204Z,1013.16
2018-03-27T08:47:59.183Z,1013.19
2018-03-27T08:48:59.216Z,1013.17
2018-03-27T08:49:59.133Z,1013.20
2018-03-27T08:50:59.111Z,1013.19
2018-03-27T08:51:59.876Z,1013.20
2018-03-27T08:52:59.063Z,1013.20
2018-03-27T08:53:59.447Z,1013.21
2018-03-27T08:54:59.016Z,1013.18
2018-03-27T08:55:59.049Z,1013.18
2018-03-27T08:56:58.974Z,1013.20
2018-03-27T08:57:58.962Z,1013.18
2018-03-27T08:58:58.928Z,1013.20
2018-03-27T08:59:59.438Z,1013.18
2018-03-27T09:00:58.888Z,1013.19
2018-03-27T09:01:58.861Z,1013.18
2018-03-27T09:02:58.844Z,1013.17
2018-03-27T09:03:58.816Z,1013.13
2018-03-27T09:04:58.844Z,1013.15
2018-03-27T09:05:58.818Z,1013.12
2018-03-27T09:06:58.793Z,1013.14
2018-03-27T09:07:58.732Z,1013.17
2018-03-27T09:08:58.706Z,1013.26
2018-03-27T09:09:58.726Z,1013.23
2018-03-27T09:10:58.659Z,1013.26
2018-03-27T09:11:58.642Z,1013.24
2018-03-27T09:12:58.651Z,1013.25
2018-03-27T09:13:58.600Z,1013.29
2018-03-27T09:14:58.629Z,1013.27
2018-03-27T09:15:58.631Z,1013.27
2018-03-27T09:16:58.545Z,1013.27
2018-03-27T09:17:58.527Z,1013.28
2018-03-27T09:18:58.507Z,1013.22
2018-03-27T09:19:58.493Z,1013.23
2018-03-27T09:20:58.519Z,1013.27
2018-03-27T09:21:58.551Z,1013.18
2018-03-27T09:22:58.438Z,1013.17
2018-03-27T09:23:58.425Z,1013.16
2018-03-27T09:24:58.405Z,1013.18
2018-03-27T09:25:58.393Z,1013.18
2018-03-27T09:26:58.422Z,1013.15
2018-03-27T09:27:58.350Z,1013.17
2018-03-27T09:28:58.353Z,1013.11
2018-03-27T09:29:58.378Z,1013.10
2018-03-27T09:30:58.301Z,1013.15
2018-03-27T09:31:58.341Z,1013.09
2018-03-27T09:32:58.265Z,1013.08
2018-03-27T09:33:58.251Z,1013.07
2018-03-27T09:34:58.233Z,1013.05
2018-03-27T09:35:58.223Z,1013.06
2018-03-27T09:36:58.250Z,1013.09
2018-03-27T09:37:58.188Z,1013.07
2018-03-27T09:38:58.206Z,1013.05
2018-03-27T09:39:58.152Z,1013.06
2018-03-27T09:40:58.132Z,1013.05
2018-03-27T09:41:58.114Z,1013.03
2018-03-27T09:42:58.095Z,1013.05
2018-03-27T09:43:58.133Z,1013.03
2018-03-27T09:44:58.062Z,1013.08
2018-03-27T09:45:58.045Z,1013.03
2018-03-27T09:46:58.021Z,1013.00
2018-03-27T09:47:58.009Z,1012.97
2018-03-27T09:48:58.033Z,1012.96
2018-03-27T09:49:57.964Z,1012.95
2018-03-27T09:50:57.963Z,1013.02
2018-03-27T09:51:57.936Z,1013.04
2018-03-27T09:52:57.912Z,1013.08
2018-03-27T09:53:57.941Z,1013.14
2018-03-27T09:54:57.952Z,1013.05
2018-03-27T09:55:57.857Z,1013.02
2018-03-27T09:56:57.841Z,1013.08
2018-03-27T09:57:57.822Z,1013.09
2018-03-27T09:58:57.802Z,1013.09
2018-03-27T09:59:57.831Z,1013.05
2018-03-27T10:00:57.769Z,1012.96
2018-03-27T10:01:57.751Z,1012.90
2018-03-27T10:02:57.751Z,1012.91
2018-03-27T10:03:57.719Z,1012.95
2018-03-27T10:04:57.745Z,1012.90
2018-03-27T10:05:57.680Z,1012.91
2018-03-27T10:06:57.672Z,1012.87
2018-03-27T10:07:57.657Z,1012.87
2018-03-27T10:08:57.628Z,1012.84
2018-03-27T10:09:57.656Z,1012.79
2018-03-27T10:10:57.658Z,1012.82
2018-03-27T10:11:57.573Z,1012.93
2018-03-27T10:12:57.555Z,1012.97
2018-03-27T10:13:57.534Z,1012.92
2018-03-27T10:14:57.516Z,1012.92
2018-03-27T10:15:57.557Z,1012.97
2018-03-27T10:16:57.485Z,1012.95
2018-03-27T10:17:57.485Z,1012.97
2018-03-27T10:18:57.450Z,1012.93
2018-03-27T10:19:57.435Z,1012.99
2018-03-27T10:20:57.458Z,1012.92
2018-03-27T10:21:57.418Z,1012.89
2018-03-27T10:22:57.392Z,1012.92
2018-03-27T10:23:57.376Z,1012.93
2018-03-27T10:24:57.363Z,1012.84
2018-03-27T10:25:57.410Z,1012.86
2018-03-27T10:26:57.338Z,1012.83
2018-03-27T10:27:57.326Z,1012.86
2018-03-27T10:28:57.315Z,1012.83
2018-03-27T10:29:57.298Z,1012.78
2018-03-27T10:30:57.330Z,1012.80
2018-03-27T10:31:57.269Z,1012.80
2018-03-27T10:32:57.248Z,1012.80
2018-03-27T10:33:57.235Z,1012.77
2018-03-27T10:34:57.240Z,1012.79
2018-03-27T10:35:57.257Z,1012.79
2018-03-27T10:36:57.185Z,1012.79
2018-03-27T10:37:57.167Z,1012.75
2018-03-27T10:38:57.906Z,1012.72
2018-03-27T10:39:57.130Z,1012.73
2018-03-27T10:40:57.189Z,1012.68
2018-03-27T10:41:57.094Z,1012.63
2018-03-27T10:42:57.080Z,1012.66
2018-03-27T10:43:57.085Z,1012.64
2018-03-27T10:44:57.117Z,1012.63
2018-03-27T10:45:57.021Z,1012.65
2018-03-27T10:46:57.005Z,1012.65
2018-03-27T10:47:56.985Z,1012.64
2018-03-27T10:48:56.974Z,1012.57
2018-03-27T10:49:56.989Z,1012.81
2018-03-27T10:50:56.973Z,1012.82
2018-03-27T10:51:56.907Z,1012.86
2018-03-27T10:52:56.890Z,1012.88
2018-03-27T10:53:56.917Z,1012.83
2018-03-27T10:54:56.856Z,1012.76
2018-03-27T10:55:56.842Z,1012.73
2018-03-27T10:56:56.827Z,1012.70
2018-03-27T10:57:56.806Z,1012.91
2018-03-27T10:58:56.842Z,1012.84
2018-03-27T10:59:56.776Z,1012.92
2018-03-27T11:00:56.884Z,1013.02
2018-03-27T11:01:56.744Z,1013.01
2018-03-27T11:02:56.778Z,1012.97
2018-03-27T11:03:56.821Z,1012.92
2018-03-27T11:04:56.701Z,1012.90
2018-03-27T11:05:56.688Z,1012.95
2018-03-27T11:06:56.680Z,1012.83
2018-03-27T11:07:56.715Z,1012.82
2018-03-27T11:08:56.663Z,1012.90
2018-03-27T11:09:56.644Z,1012.87
2018-03-27T11:10:56.631Z,1012.72
2018-03-27T11:11:56.666Z,1012.69
2018-03-27T11:12:56.607Z,1012.83
2018-03-27T11:13:56.600Z,1012.87
2018-03-27T11:14:56.650Z,1012.82
2018-03-27T11:15:56.569Z,1012.67
2018-03-27T11:16:56.620Z,1012.72
2018-03-27T11:17:56.546Z,1012.64
2018-03-27T11:18:57.421Z,1012.62
2018-03-27T11:19:56.515Z,1012.57
2018-03-27T11:20:56.528Z,1012.63
2018-03-27T11:21:56.538Z,1012.51
2018-03-27T11:22:56.474Z,1012.54
2018-03-27T11:23:56.461Z,1012.53
2018-03-27T11:24:56.488Z,1012.49
2018-03-27T11:25:56.430Z,1012.46
2018-03-27T11:26:56.406Z,1012.43
2018-03-27T11:27:56.441Z,1012.52
2018-03-27T11:28:56.377Z,1012.48
2018-03-27T11:29:56.358Z,1012.39
2018-03-27T11:30:56.924Z,1012.44
2018-03-27T11:31:56.372Z,1012.45
2018-03-27T11:32:56.302Z,1012.45
2018-03-27T11:33:56.283Z,1012.43
2018-03-27T11:34:56.260Z,1012.37
2018-03-27T11:35:56.253Z,1012.34
2018-03-27T11:36:56.267Z,1012.31
2018-03-27T11:37:56.264Z,1012.28
2018-03-27T11:38:56.181Z,1012.30
2018-03-27T11:39:56.157Z,1012.32
2018-03-27T11:40:56.154Z,1012.29
2018-03-27T11:41:56.119Z,1012.30
2018-03-27T11:42:56.157Z,1012.30
2018-03-27T11:43:56.078Z,1012.25
2018-03-27T11:44:56.099Z,1012.24
2018-03-27T11:45:56.031Z,1012.24
2018-03-27T11:46:56.018Z,1012.27
2018-03-27T11:47:56.032Z,1012.19
2018-03-27T11:48:55.964Z,1012.20
2018-03-27T11:49:55.947Z,1012.20
2018-03-27T11:50:55.989Z,1012.21
2018-03-27T11:51:55.904Z,1012.23
2018-03-27T11:52:55.875Z,1012.26
2018-03-27T11:53:55.903Z,1012.24
2018-03-27T11:54:55.831Z,1012.17
2018-03-27T11:55:55.811Z,1012.17
2018-03-27T11:56:55.790Z,1012.16
2018-03-27T11:57:55.761Z,1012.17
2018-03-27T11:58:55.790Z,1012.17
2018-03-27T11:59:55.713Z,1012.17
2018-03-27T12:00:55.701Z,1012.18
2018-03-27T12:01:56.438Z,1012.20
2018-03-27T12:02:55.644Z,1012.11
2018-03-27T12:03:55.676Z,1012.25
2018-03-27T12:04:55.593Z,1012.14